createdAt,value
2019-03-18T00:00:51.704Z,30.54
2019-03-18T00:03:18.288Z,30.71
2019-03-18T00:05:44.605Z,30.78
2019-03-18T00:08:10.951Z,30.61
2019-03-18T00:10:37.291Z,30.64
2019-03-18T00:13:03.647Z,30.59
2019-03-18T00:15:29.998Z,30.72
2019-03-18T00:17:56.328Z,30.72
2019-03-18T00:20:22.720Z,30.78
2019-03-18T00:22:49.142Z,30.65
2019-03-18T00:25:15.479Z,30.59
2019-03-18T00:27:41.837Z,30.70
2019-03-18T00:30:08.160Z,30.69
2019-03-18T00:32:34.564Z,30.71
2019-03-18T00:35:00.926Z,30.72
2019-03-18T00:37:27.286Z,30.54
2019-03-18T00:39:53.586Z,30.74
2019-03-18T00:42:19.940Z,30.62
2019-03-18T00:44:46.283Z,30.59
2019-03-18T00:47:12.713Z,30.69
2019-03-18T00:49:39.107Z,30.67
2019-03-18T00:52:05.438Z,30.71
2019-03-18T00:54:31.768Z,30.81
2019-03-18T00:56:58.151Z,30.73
2019-03-18T00:59:24.469Z,30.74
2019-03-18T01:01:50.846Z,30.72
2019-03-18T01:04:17.219Z,30.74
2019-03-18T01:06:43.526Z,30.43
2019-03-18T01:09:09.882Z,30.38
2019-03-18T01:11:36.229Z,30.45
2019-03-18T01:14:02.629Z,30.40
2019-03-18T01:16:28.962Z,30.54
2019-03-18T01:18:55.346Z,30.31
2019-03-18T01:21:21.645Z,30.19
2019-03-18T01:23:48.017Z,30.29
2019-03-18T01:26:14.347Z,30.29
2019-03-18T01:28:40.683Z,30.15
2019-03-18T01:31:07.049Z,30.09
2019-03-18T01:33:33.401Z,30.11
2019-03-18T01:35:59.754Z,30.10
2019-03-18T01:38:26.084Z,30.07
2019-03-18T01:40:52.412Z,29.94
2019-03-18T01:43:18.866Z,30.00
2019-03-18T01:45:45.226Z,29.87
2019-03-18T01:48:11.616Z,29.93
2019-03-18T01:50:38.063Z,30.06
2019-03-18T01:53:04.405Z,29.74
2019-03-18T01:55:30.737Z,29.88
2019-03-18T01:57:57.112Z,29.58
2019-03-18T02:00:23.433Z,29.71
2019-03-18T02:02:51.889Z,29.79
2019-03-18T02:05:16.281Z,29.74
2019-03-18T02:07:42.759Z,29.80
2019-03-18T02:10:09.040Z,29.62
2019-03-18T02:12:35.394Z,29.73
2019-03-18T02:15:01.715Z,29.63
2019-03-18T02:17:28.052Z,29.71
2019-03-18T02:19:54.381Z,29.69
2019-03-18T02:22:20.715Z,29.58
2019-03-18T02:24:47.065Z,29.64
2019-03-18T02:27:13.405Z,29.73
2019-03-18T02:29:39.745Z,29.72
2019-03-18T02:32:06.069Z,29.56
2019-03-18T02:34:32.675Z,29.65
2019-03-18T02:36:59.012Z,29.67
2019-03-18T02:39:25.337Z,29.75
2019-03-18T02:41:51.772Z,29.62
2019-03-18T02:44:18.054Z,29.72
2019-03-18T02:46:44.352Z,29.81
2019-03-18T02:49:10.675Z,29.60
2019-03-18T02:51:37.136Z,29.74
2019-03-18T02:54:03.506Z,29.72
2019-03-18T02:56:29.848Z,29.66
2019-03-18T02:58:56.176Z,29.76
2019-03-18T03:01:22.507Z,29.88
2019-03-18T03:03:48.836Z,29.61
2019-03-18T03:06:15.167Z,29.63
2019-03-18T03:08:41.516Z,29.54
2019-03-18T03:11:07.886Z,29.68
2019-03-18T03:13:34.232Z,29.50
2019-03-18T03:16:01.757Z,29.59
2019-03-18T03:18:26.935Z,29.63
2019-03-18T03:20:53.370Z,29.47
2019-03-18T03:23:19.702Z,29.59
2019-03-18T03:25:46.095Z,29.55
2019-03-18T03:28:12.503Z,29.59
2019-03-18T03:30:38.900Z,29.56
2019-03-18T03:33:05.260Z,29.53
2019-03-18T03:35:31.801Z,29.79
2019-03-18T03:37:58.116Z,29.75
2019-03-18T03:40:24.453Z,29.64
2019-03-18T03:42:50.802Z,29.60
2019-03-18T03:45:17.274Z,29.63
2019-03-18T03:47:43.599Z,29.72
2019-03-18T03:50:10.011Z,29.72
2019-03-18T03:52:36.416Z,29.83
2019-03-18T03:55:02.717Z,29.71
2019-03-18T03:57:29.166Z,29.79
2019-03-18T03:59:55.568Z,29.84
2019-03-18T04:02:21.991Z,29.78
2019-03-18T04:04:48.336Z,29.78
2019-03-18T04:07:14.632Z,29.73
2019-03-18T04:09:40.972Z,29.61
2019-03-18T04:12:07.384Z,29.43
2019-03-18T04:14:33.680Z,29.59
2019-03-18T04:17:02.473Z,29.28
2019-03-18T04:19:26.528Z,29.18
2019-03-18T04:21:52.873Z,29.41
2019-03-18T04:24:19.248Z,29.56
2019-03-18T04:26:45.604Z,29.50
2019-03-18T04:29:11.937Z,29.32
2019-03-18T04:31:38.269Z,29.25
2019-03-18T04:34:04.624Z,29.33
2019-03-18T04:36:30.945Z,29.38
2019-03-18T04:38:57.308Z,29.34
2019-03-18T04:41:23.638Z,29.33
2019-03-18T04:43:49.970Z,29.31
2019-03-18T04:46:16.301Z,29.35
2019-03-18T04:48:42.680Z,29.05
2019-03-18T04:51:09.064Z,29.08
2019-03-18T04:53:35.389Z,29.02
2019-03-18T04:56:01.724Z,29.09
2019-03-18T04:58:28.111Z,28.90
2019-03-18T05:00:54.523Z,29.14
2019-03-18T05:03:20.891Z,28.95
2019-03-18T05:05:47.277Z,29.00
2019-03-18T05:08:13.597Z,28.91
2019-03-18T05:10:39.967Z,28.65
2019-03-18T05:13:06.307Z,28.54
2019-03-18T05:15:32.754Z,28.49
2019-03-18T05:17:59.103Z,28.20
2019-03-18T05:20:25.468Z,28.25
2019-03-18T05:22:51.885Z,28.48
2019-03-18T05:25:18.248Z,28.43
2019-03-18T05:27:44.559Z,28.48
2019-03-18T05:30:10.923Z,28.10
2019-03-18T05:32:37.317Z,28.03
2019-03-18T05:35:03.677Z,27.92
2019-03-18T05:37:30.060Z,27.85
2019-03-18T05:39:56.348Z,27.98
2019-03-18T05:42:22.708Z,27.76
2019-03-18T05:44:49.175Z,27.68
2019-03-18T05:47:15.513Z,28.00
2019-03-18T05:49:41.881Z,27.80
2019-03-18T05:52:08.250Z,27.78
2019-03-18T05:54:34.581Z,27.37
2019-03-18T05:57:01.059Z,27.48
2019-03-18T05:59:27.472Z,27.40
2019-03-18T06:01:53.925Z,27.19
2019-03-18T06:04:20.275Z,27.28
2019-03-18T06:06:46.688Z,26.73
2019-03-18T06:09:13.035Z,26.52
2019-03-18T06:11:39.407Z,26.98
2019-03-18T06:14:05.715Z,27.37
2019-03-18T06:16:32.049Z,27.02
2019-03-18T06:19:00.269Z,26.74
2019-03-18T06:21:24.784Z,27.02
2019-03-18T06:23:51.122Z,26.97
2019-03-18T06:26:17.544Z,27.36
2019-03-18T06:28:43.887Z,27.07
2019-03-18T06:31:10.312Z,27.50
2019-03-18T06:33:36.599Z,27.16
2019-03-18T06:36:02.952Z,27.37
2019-03-18T06:38:29.386Z,27.32
2019-03-18T06:40:55.808Z,27.75
2019-03-18T06:43:22.139Z,26.84
2019-03-18T06:45:48.614Z,26.82
2019-03-18T06:48:14.950Z,26.50
2019-03-18T06:50:41.292Z,26.47
2019-03-18T06:53:07.629Z,26.50
2019-03-18T06:55:33.949Z,26.32
2019-03-18T06:58:00.307Z,26.51
2019-03-18T07:00:26.644Z,27.48
2019-03-18T07:02:53.595Z,26.48
2019-03-18T07:05:19.983Z,26.59
2019-03-18T07:07:46.322Z,26.53
2019-03-18T07:10:12.688Z,26.60
2019-03-18T07:12:39.042Z,26.93
2019-03-18T07:15:05.408Z,26.65
2019-03-18T07:17:31.791Z,26.42
2019-03-18T07:19:58.135Z,26.91
2019-03-18T07:22:24.482Z,26.69
2019-03-18T07:24:50.830Z,26.83
2019-03-18T07:27:17.171Z,27.16
2019-03-18T07:29:43.536Z,26.76
2019-03-18T07:32:09.906Z,26.28
2019-03-18T07:34:36.254Z,26.96
2019-03-18T07:37:02.632Z,27.41
2019-03-18T07:39:29.018Z,27.12
2019-03-18T07:41:55.347Z,27.17
2019-03-18T07:44:21.758Z,26.49
2019-03-18T07:46:48.105Z,26.52
2019-03-18T07:49:14.616Z,27.48
2019-03-18T07:51:41.031Z,27.40
2019-03-18T07:54:07.377Z,26.97
2019-03-18T07:56:33.713Z,27.09
2019-03-18T07:59:00.086Z,27.33
2019-03-18T08:01:26.940Z,27.23
2019-03-18T08:03:53.315Z,27.51
2019-03-18T08:06:19.658Z,27.30
2019-03-18T08:08:46.084Z,27.79
2019-03-18T08:11:12.449Z,27.27
2019-03-18T08:13:38.881Z,27.83
2019-03-18T08:16:05.188Z,27.25
2019-03-18T08:18:42.777Z,27.50
2019-03-18T08:21:00.487Z,26.84
2019-03-18T08:23:26.827Z,27.60
2019-03-18T08:25:53.171Z,27.10
2019-03-18T08:28:19.682Z,27.03
2019-03-18T08:30:46.014Z,27.31
2019-03-18T08:33:12.358Z,27.11
2019-03-18T08:35:38.707Z,26.81
2019-03-18T08:38:05.214Z,26.92
2019-03-18T08:40:31.593Z,27.31
2019-03-18T08:42:57.941Z,27.49
2019-03-18T08:45:24.282Z,27.68
2019-03-18T08:47:50.738Z,27.59
2019-03-18T08:50:17.279Z,27.30
2019-03-18T08:52:43.648Z,27.85
2019-03-18T08:55:10.045Z,27.85
2019-03-18T08:57:36.379Z,27.39
2019-03-18T09:00:02.732Z,27.29
2019-03-18T09:02:29.235Z,27.76
2019-03-18T09:04:55.581Z,27.44
2019-03-18T09:07:21.930Z,27.41
2019-03-18T09:09:48.442Z,27.76
2019-03-18T09:12:14.776Z,27.57
2019-03-18T09:14:41.280Z,27.68
2019-03-18T09:17:07.581Z,26.97
2019-03-18T09:19:33.959Z,27.59
2019-03-18T09:22:00.399Z,27.31
2019-03-18T09:24:26.769Z,27.86
2019-03-18T09:27:01.832Z,27.53
2019-03-18T09:29:19.498Z,27.59
2019-03-18T09:31:46.029Z,27.52
2019-03-18T09:34:12.375Z,27.84
2019-03-18T09:36:38.711Z,27.81
2019-03-18T09:39:05.129Z,27.81
2019-03-18T09:41:31.473Z,27.48
2019-03-18T09:43:57.820Z,27.75
2019-03-18T09:46:24.162Z,28.03
2019-03-18T09:48:50.502Z,28.16
2019-03-18T09:51:16.989Z,28.09
2019-03-18T09:53:43.321Z,28.21
2019-03-18T09:56:09.678Z,28.17
2019-03-18T09:58:36.064Z,28.20
2019-03-18T10:01:02.445Z,27.92
2019-03-18T10:03:28.845Z,28.12
2019-03-18T10:05:55.158Z,28.45
2019-03-18T10:08:21.563Z,28.08
2019-03-18T10:10:47.946Z,28.32
2019-03-18T10:13:14.331Z,28.22
2019-03-18T10:15:40.655Z,27.72
2019-03-18T10:18:07.022Z,27.94
2019-03-18T10:20:33.436Z,27.72
2019-03-18T10:22:59.776Z,27.96
2019-03-18T10:25:26.153Z,27.48
2019-03-18T10:27:53.553Z,27.67
2019-03-18T10:30:19.914Z,28.07
2019-03-18T10:32:46.247Z,27.77
2019-03-18T10:35:12.630Z,27.81
2019-03-18T10:37:38.976Z,28.15
2019-03-18T10:40:05.309Z,27.96
2019-03-18T10:42:31.719Z,27.77
2019-03-18T10:44:58.093Z,27.49
2019-03-18T10:47:24.432Z,27.13
2019-03-18T10:49:50.792Z,27.39
2019-03-18T10:52:17.167Z,27.84
2019-03-18T10:54:43.499Z,28.02
2019-03-18T10:57:09.835Z,28.11
2019-03-18T10:59:36.288Z,28.38
2019-03-18T11:02:02.630Z,27.55
2019-03-18T11:04:29.028Z,27.81
2019-03-18T11:06:55.410Z,27.31
2019-03-18T11:09:21.842Z,27.88
2019-03-18T11:11:48.095Z,28.27
2019-03-18T11:14:14.507Z,27.60
2019-03-18T11:16:40.894Z,27.55
2019-03-18T11:19:07.245Z,27.62
2019-03-18T11:21:35.831Z,27.55
2019-03-18T11:24:02.194Z,27.32
2019-03-18T11:26:28.537Z,27.32
2019-03-18T11:28:55.102Z,27.90
2019-03-18T11:31:21.459Z,27.33
2019-03-18T11:33:47.804Z,27.58
2019-03-18T11:36:14.214Z,27.49
2019-03-18T11:38:40.647Z,27.12
2019-03-18T11:41:07.025Z,27.78
2019-03-18T11:43:33.487Z,27.35
2019-03-18T11:45:59.845Z,27.15
2019-03-18T11:48:26.202Z,26.93
2019-03-18T11:50:52.556Z,27.73
2019-03-18T11:53:19.024Z,28.00
2019-03-18T11:55:45.373Z,28.05
2019-03-18T11:58:11.806Z,28.09
2019-03-18T12:00:38.222Z,28.17
2019-03-18T12:03:04.647Z,28.25
2019-03-18T12:05:31.048Z,27.88
2019-03-18T12:07:57.375Z,28.15
2019-03-18T12:10:25.654Z,27.63
2019-03-18T12:12:50.130Z,27.38
2019-03-18T12:15:16.490Z,27.19
2019-03-18T12:17:43.833Z,26.76
2019-03-18T12:20:23.572Z,27.64
2019-03-18T12:22:38.532Z,27.46
2019-03-18T12:25:04.897Z,26.74
2019-03-18T12:27:31.277Z,26.51
2019-03-18T12:29:57.817Z,26.79
2019-03-18T12:32:24.195Z,28.10
2019-03-18T12:34:50.521Z,28.31
2019-03-18T12:37:16.909Z,28.27
2019-03-18T12:39:43.241Z,28.17
2019-03-18T12:42:09.615Z,28.16
2019-03-18T12:44:36.079Z,27.52
2019-03-18T12:47:02.442Z,27.81
2019-03-18T12:49:28.836Z,27.23
2019-03-18T12:51:55.205Z,27.61
2019-03-18T12:54:21.550Z,27.66
2019-03-18T12:56:47.900Z,28.26
2019-03-18T12:59:14.271Z,28.82
2019-03-18T13:01:40.649Z,28.23
2019-03-18T13:04:07.043Z,28.15
2019-03-18T13:06:33.733Z,28.13
2019-03-18T13:08:59.812Z,26.85
2019-03-18T13:11:26.298Z,26.47
2019-03-18T13:13:52.680Z,26.19
2019-03-18T13:16:19.033Z,26.71
2019-03-18T13:18:45.390Z,26.97
2019-03-18T13:21:11.765Z,27.19
2019-03-18T13:23:38.124Z,26.46
2019-03-18T13:26:04.473Z,26.95
2019-03-18T13:28:30.845Z,27.00
2019-03-18T13:30:57.144Z,25.97
2019-03-18T13:33:23.526Z,26.87
2019-03-18T13:35:50.096Z,27.31
2019-03-18T13:38:16.598Z,27.52
2019-03-18T13:40:45.863Z,27.64
2019-03-18T13:43:09.805Z,27.87
2019-03-18T13:45:36.267Z,27.65
2019-03-18T13:48:02.695Z,27.70
2019-03-18T13:50:29.171Z,27.91
2019-03-18T13:52:55.743Z,27.77
2019-03-18T13:55:22.176Z,27.83
2019-03-18T13:57:48.738Z,27.78
2019-03-18T14:00:15.225Z,27.85
2019-03-18T14:02:41.665Z,27.83
2019-03-18T14:05:08.493Z,27.85
2019-03-18T14:07:35.119Z,27.68
2019-03-18T14:10:01.859Z,27.69
2019-03-18T14:12:29.929Z,27.77
2019-03-18T14:14:56.535Z,27.99
2019-03-18T14:17:22.990Z,27.77
2019-03-18T14:19:49.433Z,27.71
2019-03-18T14:22:16.295Z,27.69
2019-03-18T14:24:43.376Z,27.56
2019-03-18T14:27:12.023Z,27.73
2019-03-18T14:29:38.734Z,27.64
2019-03-18T14:32:05.376Z,27.64
2019-03-18T14:34:31.723Z,27.65
2019-03-18T14:36:58.057Z,27.62
2019-03-18T14:39:24.410Z,27.65
2019-03-18T14:41:50.816Z,27.57
2019-03-18T14:44:17.192Z,27.46
2019-03-18T14:46:43.631Z,27.38
2019-03-18T14:49:09.991Z,27.43
2019-03-18T14:51:45.397Z,27.31
2019-03-18T14:54:02.815Z,27.41
2019-03-18T14:56:29.109Z,27.22
2019-03-18T14:58:55.547Z,27.25
2019-03-18T15:01:21.942Z,27.21
2019-03-18T15:03:48.290Z,27.10
2019-03-18T15:06:14.698Z,27.17
2019-03-18T15:08:41.173Z,27.08
2019-03-18T15:11:07.579Z,27.09
2019-03-18T15:13:33.923Z,27.13
2019-03-18T15:16:00.356Z,27.10
2019-03-18T15:18:26.695Z,27.07
2019-03-18T15:20:53.190Z,27.13
2019-03-18T15:23:19.542Z,26.90
2019-03-18T15:25:45.921Z,26.99
2019-03-18T15:28:12.457Z,26.97
2019-03-18T15:30:38.869Z,26.95
2019-03-18T15:33:05.212Z,26.93
2019-03-18T15:35:31.728Z,26.85
2019-03-18T15:37:58.058Z,26.76
2019-03-18T15:40:24.634Z,26.95
2019-03-18T15:42:51.044Z,27.01
2019-03-18T15:45:17.392Z,26.86
2019-03-18T15:47:43.840Z,26.81
2019-03-18T15:50:12.852Z,26.80
2019-03-18T15:52:36.513Z,26.76
2019-03-18T15:55:02.908Z,26.77
2019-03-18T15:57:30.036Z,26.70
2019-03-18T15:59:55.591Z,26.62
2019-03-18T16:02:21.913Z,26.65
2019-03-18T16:04:48.250Z,26.60
2019-03-18T16:07:14.584Z,26.56
2019-03-18T16:09:40.954Z,26.69
2019-03-18T16:12:07.329Z,26.65
2019-03-18T16:14:33.717Z,26.78
2019-03-18T16:17:02.281Z,26.96
2019-03-18T16:19:26.431Z,27.05
2019-03-18T16:21:52.769Z,26.97
2019-03-18T16:24:19.116Z,27.01
2019-03-18T16:26:45.464Z,26.94
2019-03-18T16:29:11.800Z,26.99
2019-03-18T16:31:38.193Z,27.08
2019-03-18T16:34:04.523Z,26.94
2019-03-18T16:36:30.930Z,27.06
2019-03-18T16:38:57.306Z,27.04
2019-03-18T16:41:23.634Z,27.05
2019-03-18T16:43:49.979Z,27.10
2019-03-18T16:46:16.358Z,26.99
2019-03-18T16:48:42.753Z,27.29
2019-03-18T16:51:09.065Z,27.14
2019-03-18T16:53:35.395Z,27.21
2019-03-18T16:56:01.728Z,27.16
2019-03-18T16:58:28.111Z,27.17
2019-03-18T17:00:54.482Z,27.08
2019-03-18T17:03:20.851Z,27.40
2019-03-18T17:05:47.190Z,27.23
2019-03-18T17:08:13.533Z,27.26
2019-03-18T17:10:39.863Z,27.17
2019-03-18T17:13:06.206Z,27.10
2019-03-18T17:15:32.545Z,27.31
2019-03-18T17:17:58.957Z,27.29
2019-03-18T17:20:25.310Z,27.28
2019-03-18T17:22:51.810Z,27.19
2019-03-18T17:25:18.106Z,27.35
2019-03-18T17:27:44.456Z,27.24
2019-03-18T17:30:10.821Z,27.29
2019-03-18T17:32:37.249Z,27.06
2019-03-18T17:35:03.574Z,26.82
2019-03-18T17:37:29.850Z,26.97
2019-03-18T17:39:56.242Z,26.70
2019-03-18T17:42:22.578Z,26.54
2019-03-18T17:44:48.903Z,26.64
2019-03-18T17:47:15.256Z,26.87
2019-03-18T17:49:41.610Z,26.82
2019-03-18T17:52:07.988Z,26.80
2019-03-18T17:54:34.347Z,26.68
2019-03-18T17:57:07.289Z,26.93
2019-03-18T17:59:27.116Z,27.00
2019-03-18T18:01:53.462Z,26.87
2019-03-18T18:04:19.795Z,26.62
2019-03-18T18:06:46.210Z,26.81
2019-03-18T18:09:12.572Z,26.98
2019-03-18T18:11:38.949Z,26.89
2019-03-18T18:14:06.535Z,26.94
2019-03-18T18:16:31.632Z,26.94
2019-03-18T18:18:58.042Z,26.93
2019-03-18T18:21:24.412Z,27.05
2019-03-18T18:23:50.755Z,27.24
2019-03-18T18:26:17.117Z,27.16
2019-03-18T18:28:43.487Z,27.17
2019-03-18T18:31:09.834Z,27.33
2019-03-18T18:33:36.167Z,27.27
2019-03-18T18:36:02.539Z,27.46
2019-03-18T18:38:28.900Z,27.50
2019-03-18T18:40:55.556Z,27.44
2019-03-18T18:43:21.892Z,27.67
2019-03-18T18:45:48.231Z,27.60
2019-03-18T18:48:14.568Z,27.65
2019-03-18T18:50:40.894Z,27.69
2019-03-18T18:53:07.226Z,27.85
2019-03-18T18:55:33.558Z,27.81
2019-03-18T18:57:59.912Z,27.98
2019-03-18T19:00:26.284Z,28.01
2019-03-18T19:02:52.683Z,28.07
2019-03-18T19:05:19.082Z,27.99
2019-03-18T19:07:45.435Z,28.06
2019-03-18T19:10:11.790Z,28.01
2019-03-18T19:12:38.158Z,28.15
2019-03-18T19:15:04.518Z,28.11
2019-03-18T19:17:30.921Z,28.29
2019-03-18T19:19:57.333Z,28.18
2019-03-18T19:22:23.664Z,28.32
2019-03-18T19:24:50.126Z,28.18
2019-03-18T19:27:16.664Z,28.30
2019-03-18T19:29:43.011Z,28.31
2019-03-18T19:32:09.347Z,28.43
2019-03-18T19:34:35.705Z,28.59
2019-03-18T19:37:01.991Z,28.47
2019-03-18T19:39:28.325Z,28.41
2019-03-18T19:41:54.740Z,28.41
2019-03-18T19:44:21.090Z,28.53
2019-03-18T19:46:47.403Z,28.59
2019-03-18T19:49:13.717Z,28.59
2019-03-18T19:51:40.056Z,28.66
2019-03-18T19:54:06.501Z,28.70
2019-03-18T19:56:32.848Z,28.74
2019-03-18T19:58:59.170Z,28.75
2019-03-18T20:01:25.500Z,28.73
2019-03-18T20:03:51.866Z,28.75
2019-03-18T20:06:18.219Z,28.71
2019-03-18T20:08:44.546Z,28.80
2019-03-18T20:11:10.920Z,28.71
2019-03-18T20:13:37.353Z,28.68
2019-03-18T20:16:03.660Z,28.82
2019-03-18T20:18:30.111Z,28.66
2019-03-18T20:20:57.054Z,28.84
2019-03-18T20:23:22.976Z,28.80
2019-03-18T20:25:49.351Z,28.65
2019-03-18T20:28:15.712Z,28.81
2019-03-18T20:30:42.053Z,28.82
2019-03-18T20:33:08.386Z,28.74
2019-03-18T20:35:34.783Z,28.91
2019-03-18T20:38:01.174Z,29.11
2019-03-18T20:40:27.605Z,28.89
2019-03-18T20:42:53.959Z,29.01
2019-03-18T20:45:20.288Z,29.03
2019-03-18T20:47:46.642Z,28.93
2019-03-18T20:50:12.982Z,29.13
2019-03-18T20:52:39.320Z,29.10
2019-03-18T20:55:05.692Z,29.21
2019-03-18T20:57:31.984Z,29.29
2019-03-18T20:59:58.874Z,29.22
2019-03-18T21:02:25.205Z,29.29
2019-03-18T21:04:51.535Z,29.22
2019-03-18T21:07:17.862Z,29.39
2019-03-18T21:09:44.192Z,29.34
2019-03-18T21:12:10.520Z,29.39
2019-03-18T21:14:37.052Z,29.57
2019-03-18T21:17:03.385Z,29.50
2019-03-18T21:19:29.751Z,29.48
2019-03-18T21:21:56.087Z,29.54
2019-03-18T21:24:23.685Z,29.66
2019-03-18T21:26:48.859Z,29.58
2019-03-18T21:29:15.224Z,29.56
2019-03-18T21:31:41.540Z,29.62
2019-03-18T21:34:07.919Z,29.69
2019-03-18T21:36:38.230Z,29.72
2019-03-18T21:39:00.588Z,29.92
2019-03-18T21:41:27.302Z,30.03
2019-03-18T21:43:53.283Z,30.08
2019-03-18T21:46:19.629Z,30.07
2019-03-18T21:48:45.958Z,30.09
2019-03-18T21:51:12.297Z,30.05
2019-03-18T21:53:38.623Z,30.22
2019-03-18T21:56:04.992Z,30.26
2019-03-18T21:58:33.032Z,30.34
2019-03-18T22:00:57.684Z,30.56
2019-03-18T22:03:24.054Z,30.42
2019-03-18T22:05:50.379Z,30.54
2019-03-18T22:08:16.722Z,30.57
2019-03-18T22:10:43.068Z,30.69
2019-03-18T22:13:09.478Z,30.59
2019-03-18T22:15:35.885Z,30.64
2019-03-18T22:18:02.240Z,30.78
2019-03-18T22:20:28.573Z,30.91
2019-03-18T22:22:54.920Z,30.55
2019-03-18T22:25:21.271Z,30.94
2019-03-18T22:27:47.666Z,30.88
2019-03-18T22:30:14.032Z,30.87
2019-03-18T22:32:40.461Z,30.83
2019-03-18T22:35:06.816Z,31.08
2019-03-18T22:37:33.169Z,31.08
2019-03-18T22:39:59.497Z,30.94
2019-03-18T22:42:25.951Z,31.10
2019-03-18T22:44:52.223Z,31.04
2019-03-18T22:47:18.612Z,31.11
2019-03-18T22:49:44.892Z,30.92
2019-03-18T22:52:11.388Z,31.32
2019-03-18T22:54:37.582Z,31.31
2019-03-18T22:57:03.913Z,31.24
2019-03-18T22:59:30.264Z,31.09
2019-03-18T23:01:57.968Z,31.17
2019-03-18T23:04:23.036Z,31.40
2019-03-18T23:06:49.314Z,31.28
2019-03-18T23:09:15.673Z,31.49
2019-03-18T23:11:42.005Z,31.29
2019-03-18T23:14:08.351Z,31.34
2019-03-18T23:16:34.719Z,31.34
2019-03-18T23:19:01.117Z,31.43
2019-03-18T23:21:27.568Z,31.72
2019-03-18T23:23:53.827Z,31.60
2019-03-18T23:26:20.225Z,31.44
2019-03-18T23:28:46.492Z,31.55
2019-03-18T23:31:12.878Z,31.49
2019-03-18T23:33:39.149Z,31.56
2019-03-18T23:36:05.510Z,31.67
2019-03-18T23:38:31.844Z,31.69
2019-03-18T23:40:58.280Z,31.66
2019-03-18T23:43:24.598Z,31.85
2019-03-18T23:45:50.971Z,31.87
2019-03-18T23:48:17.297Z,31.96
2019-03-18T23:50:43.721Z,31.78
2019-03-18T23:53:10.054Z,31.90
2019-03-18T23:55:36.464Z,31.98
2019-03-18T23:58:02.751Z,31.90
